sensor_id;sensor_type;location;lat;lon;timestamp;temperature;humidity
68867;SHT30;56451;44.804;20.476;2024-03-17T00:01:50;15.73;65.87
68867;SHT30;56451;44.804;20.476;2024-03-17T00:04:36;15.72;66.19
68867;SHT30;56451;44.804;20.476;2024-03-17T00:07:22;15.68;66.32
68867;SHT30;56451;44.804;20.476;2024-03-17T00:10:08;15.72;66.41
68867;SHT30;56451;44.804;20.476;2024-03-17T00:12:54;15.75;66.51
68867;SHT30;56451;44.804;20.476;2024-03-17T00:15:40;15.65;66.83
68867;SHT30;56451;44.804;20.476;2024-03-17T00:18:27;15.54;67.24
68867;SHT30;56451;44.804;20.476;2024-03-17T00:20:54;15.58;67.23
68867;SHT30;56451;44.804;20.476;2024-03-17T00:23:20;15.58;67.03
68867;SHT30;56451;44.804;20.476;2024-03-17T00:25:46;15.62;66.51
68867;SHT30;56451;44.804;20.476;2024-03-17T00:28:32;15.62;66.04
68867;SHT30;56451;44.804;20.476;2024-03-17T00:31:18;15.63;66.12
68867;SHT30;56451;44.804;20.476;2024-03-17T00:34:04;15.61;65.95
68867;SHT30;56451;44.804;20.476;2024-03-17T00:36:50;15.57;66.26
68867;SHT30;56451;44.804;20.476;2024-03-17T00:39:36;15.57;66.40
68867;SHT30;56451;44.804;20.476;2024-03-17T00:42:22;15.54;66.72
68867;SHT30;56451;44.804;20.476;2024-03-17T00:45:10;15.59;66.87
68867;SHT30;56451;44.804;20.476;2024-03-17T00:47:56;15.61;66.99
68867;SHT30;56451;44.804;20.476;2024-03-17T00:50:42;15.63;67.12
68867;SHT30;56451;44.804;20.476;2024-03-17T00:53:28;15.57;67.10
68867;SHT30;56451;44.804;20.476;2024-03-17T00:56:14;15.55;66.86
68867;SHT30;56451;44.804;20.476;2024-03-17T00:59:00;15.54;67.06
68867;SHT30;56451;44.804;20.476;2024-03-17T01:01:46;15.52;67.12
68867;SHT30;56451;44.804;20.476;2024-03-17T01:04:33;15.48;67.16
68867;SHT30;56451;44.804;20.476;2024-03-17T01:07:19;15.45;67.20
68867;SHT30;56451;44.804;20.476;2024-03-17T01:10:05;15.37;67.46
68867;SHT30;56451;44.804;20.476;2024-03-17T01:12:52;15.32;67.70
68867;SHT30;56451;44.804;20.476;2024-03-17T01:15:39;15.31;67.38
68867;SHT30;56451;44.804;20.476;2024-03-17T01:18:25;15.26;67.24
68867;SHT30;56451;44.804;20.476;2024-03-17T01:21:11;15.26;67.10
68867;SHT30;56451;44.804;20.476;2024-03-17T01:23:57;15.30;66.66
68867;SHT30;56451;44.804;20.476;2024-03-17T01:26:43;15.35;66.66
68867;SHT30;56451;44.804;20.476;2024-03-17T01:29:29;15.34;66.06
68867;SHT30;56451;44.804;20.476;2024-03-17T01:32:15;15.34;65.82
68867;SHT30;56451;44.804;20.476;2024-03-17T01:35:02;15.35;65.58
68867;SHT30;56451;44.804;20.476;2024-03-17T01:37:48;15.39;65.39
68867;SHT30;56451;44.804;20.476;2024-03-17T01:40:34;15.34;65.72
68867;SHT30;56451;44.804;20.476;2024-03-17T01:43:20;15.34;66.12
68867;SHT30;56451;44.804;20.476;2024-03-17T01:46:15;15.34;66.07
68867;SHT30;56451;44.804;20.476;2024-03-17T01:49:01;15.35;66.39
68867;SHT30;56451;44.804;20.476;2024-03-17T01:51:50;15.31;66.62
68867;SHT30;56451;44.804;20.476;2024-03-17T01:54:36;15.34;66.60
68867;SHT30;56451;44.804;20.476;2024-03-17T01:57:22;15.34;66.93
68867;SHT30;56451;44.804;20.476;2024-03-17T02:00:08;15.27;67.25
68867;SHT30;56451;44.804;20.476;2024-03-17T02:02:54;15.24;67.47
68867;SHT30;56451;44.804;20.476;2024-03-17T02:05:40;15.18;67.57
68867;SHT30;56451;44.804;20.476;2024-03-17T02:08:26;15.18;67.64
68867;SHT30;56451;44.804;20.476;2024-03-17T02:11:29;15.20;67.61
68867;SHT30;56451;44.804;20.476;2024-03-17T02:14:16;15.16;67.59
68867;SHT30;56451;44.804;20.476;2024-03-17T02:17:02;15.16;67.72
